Time;durP1;ratioP1;P1;durP2;ratioP2;P2;SDS_P1;SDS_P2;PMS_P1;PMS_P2;Temp;Humidity;BMP_temperature;BMP_pressure;BME280_temperature;BME280_humidity;BME280_pressure;Samples;Min_cycle;Max_cycle;Signal;HPM_P1;HPM_P2
2022/11/08 00:02:07;;;;;;;11.88;3.85;;;13.40;99.90;;;;;;4912282;29;20119;-93
2022/11/08 00:04:33;;;;;;;13.43;3.80;;;13.40;99.90;;;;;;4890784;29;20068;-96
2022/11/08 00:15:12;;;;;;;10.50;3.50;;;13.40;99.90;;;;;;4901710;29;20044;-95
2022/11/08 00:17:37;;;;;;;11.40;3.70;;;13.50;99.90;;;;;;4911187;29;20037;-93
2022/11/08 00:20:04;;;;;;;11.68;3.80;;;13.40;99.90;;;;;;4883908;29;20052;-95
2022/11/08 00:22:30;;;;;;;13.55;3.83;;;13.40;99.90;;;;;;4901250;29;20036;-96
2022/11/08 00:24:56;;;;;;;11.45;3.80;;;13.40;99.90;;;;;;4885814;29;20132;-93
2022/11/08 00:27:23;;;;;;;15.35;3.70;;;13.50;99.90;;;;;;4900483;29;20078;-96
2022/11/08 00:29:49;;;;;;;12.15;3.38;;;13.40;99.90;;;;;;4915908;29;20073;-96
2022/11/08 00:32:18;;;;;;;13.52;3.88;;;13.40;99.90;;;;;;4913467;29;20088;-96
2022/11/08 00:34:44;;;;;;;10.88;3.58;;;13.40;99.90;;;;;;4886094;29;20123;-96
2022/11/08 00:37:10;;;;;;;12.05;3.83;;;13.40;99.90;;;;;;4905622;29;20041;-96
2022/11/08 00:39:36;;;;;;;11.63;3.67;;;13.40;99.90;;;;;;4902712;29;20386;-95
2022/11/08 00:42:02;;;;;;;11.40;3.60;;;13.40;99.90;;;;;;4914712;29;20057;-96
2022/11/08 00:44:28;;;;;;;12.80;3.63;;;13.40;99.90;;;;;;4889996;29;20061;-94
2022/11/08 00:46:54;;;;;;;10.82;3.35;;;13.30;99.90;;;;;;4905293;29;20053;-96
2022/11/08 00:49:20;;;;;;;10.35;3.42;;;13.30;99.90;;;;;;4889910;29;20040;-96
2022/11/08 00:51:46;;;;;;;11.45;3.75;;;13.30;99.90;;;;;;4901649;29;20051;-95
2022/11/08 00:54:14;;;;;;;13.95;4.13;;;13.20;99.90;;;;;;4900263;29;20036;-94
2022/11/08 00:56:40;;;;;;;11.18;3.75;;;13.30;99.90;;;;;;4881974;29;20033;-95
2022/11/08 00:59:06;;;;;;;11.88;3.60;;;13.10;99.90;;;;;;4893617;29;20040;-95
2022/11/08 01:01:31;;;;;;;13.13;4.13;;;13.10;99.90;;;;;;4875136;29;20051;-96
2022/11/08 01:03:57;;;;;;;11.77;3.60;;;13.10;99.90;;;;;;4888402;29;20040;-96
2022/11/08 01:06:24;;;;;;;11.63;3.53;;;13.00;99.90;;;;;;4894012;29;20044;-96
2022/11/08 01:08:50;;;;;;;11.63;3.63;;;13.00;99.90;;;;;;4891828;29;20048;-95
2022/11/08 01:11:20;;;;;;;12.55;3.78;;;13.00;99.90;;;;;;4891369;29;20044;-96
2022/11/08 01:13:46;;;;;;;11.77;3.85;;;12.90;99.90;;;;;;4905480;29;20064;-95
2022/11/08 01:16:18;;;;;;;10.13;3.25;;;12.90;99.90;;;;;;4907171;29;20044;-96
2022/11/08 01:18:45;;;;;;;11.40;3.90;;;12.90;99.90;;;;;;4908288;29;20056;-94
2022/11/08 01:21:12;;;;;;;10.43;3.30;;;12.90;99.90;;;;;;4902922;29;20040;-96
2022/11/08 01:23:38;;;;;;;12.73;3.47;;;12.90;99.90;;;;;;4882036;29;20147;-96
2022/11/08 01:26:07;;;;;;;14.10;3.88;;;12.80;99.90;;;;;;4926097;29;20027;-96
2022/11/08 01:28:34;;;;;;;11.38;3.65;;;12.80;99.90;;;;;;4902202;29;20043;-96
2022/11/08 01:31:09;;;;;;;13.20;3.72;;;12.70;99.90;;;;;;4895449;29;20394;-96
2022/11/08 01:33:38;;;;;;;13.45;4.15;;;12.70;99.90;;;;;;4904673;29;20055;-95
2022/11/08 01:36:13;;;;;;;12.20;3.67;;;12.70;99.90;;;;;;4896228;29;20045;-96
2022/11/08 01:38:39;;;;;;;12.20;3.80;;;12.70;99.90;;;;;;4909202;29;20044;-96
2022/11/08 01:41:05;;;;;;;12.77;3.70;;;12.70;99.90;;;;;;4896136;29;20396;-96
2022/11/08 01:43:30;;;;;;;11.77;3.67;;;12.70;99.90;;;;;;4904983;29;20061;-96
2022/11/08 01:46:09;;;;;;;13.65;3.97;;;12.70;99.90;;;;;;4890564;29;20040;-94
2022/11/08 01:48:38;;;;;;;9.55;3.92;;;12.70;99.90;;;;;;4916562;29;20036;-95
2022/11/08 01:51:07;;;;;;;11.15;3.97;;;12.60;99.90;;;;;;4877842;29;20044;-95
2022/11/08 01:53:33;;;;;;;13.52;4.00;;;12.60;99.90;;;;;;4884868;29;20512;-95
2022/11/08 01:55:59;;;;;;;12.10;4.13;;;12.50;99.90;;;;;;4902688;29;20037;-95
2022/11/08 01:58:30;;;;;;;11.57;3.60;;;12.50;99.90;;;;;;4885131;29;20043;-95
2022/11/08 02:01:00;;;;;;;13.02;3.50;;;12.50;99.90;;;;;;4890339;29;20458;-96
2022/11/08 02:03:29;;;;;;;12.45;4.00;;;12.40;99.90;;;;;;4911840;29;20044;-96
2022/11/08 02:05:55;;;;;;;13.93;3.80;;;12.40;99.90;;;;;;4904628;29;20069;-95
2022/11/08 02:08:37;;;;;;;11.90;3.70;;;12.40;99.90;;;;;;4890821;29;20051;-96
2022/11/08 02:11:04;;;;;;;12.35;3.65;;;12.40;99.90;;;;;;4926288;29;20083;-96
2022/11/08 02:13:32;;;;;;;13.65;3.63;;;12.50;99.90;;;;;;4911756;29;20047;-96
2022/11/08 02:15:57;;;;;;;12.88;4.15;;;12.40;99.90;;;;;;4896466;29;20119;-95
2022/11/08 02:18:29;;;;;;;13.43;3.78;;;12.40;99.90;;;;;;4883622;29;20043;-96
2022/11/08 02:21:25;;;;;;;13.80;3.97;;;12.40;99.90;;;;;;4888068;29;20068;-95
2022/11/08 02:23:59;;;;;;;10.90;4.03;;;12.40;99.90;;;;;;4903636;29;20088;-96
2022/11/08 02:26:30;;;;;;;11.95;3.70;;;12.40;99.90;;;;;;4897467;29;20500;-96
2022/11/08 02:28:56;;;;;;;12.93;3.72;;;12.30;99.90;;;;;;4899187;29;20040;-96
2022/11/08 02:31:21;;;;;;;12.73;3.97;;;12.30;99.90;;;;;;4896278;29;20047;-96
2022/11/08 02:33:48;;;;;;;11.75;3.70;;;12.30;99.90;;;;;;4875236;29;20040;-95
2022/11/08 02:36:23;;;;;;;10.82;3.80;;;12.30;99.90;;;;;;4873186;29;20037;-96
2022/11/08 02:38:56;;;;;;;11.93;3.72;;;12.30;99.90;;;;;;4901747;29;20079;-96
2022/11/08 02:41:22;;;;;;;11.02;3.55;;;12.20;99.90;;;;;;4900739;29;20128;-96
2022/11/08 02:43:56;;;;;;;14.82;4.03;;;12.20;99.90;;;;;;4900899;29;20111;-96
2022/11/08 02:46:22;;;;;;;12.88;3.63;;;12.10;99.90;;;;;;4894226;29;20383;-95
2022/11/08 02:48:47;;;;;;;10.23;3.65;;;12.20;99.90;;;;;;4906541;29;20100;-95
2022/11/08 02:51:13;;;;;;;10.27;4.15;;;12.20;99.90;;;;;;4888589;29;20037;-96
2022/11/08 02:53:39;;;;;;;9.18;3.60;;;12.20;99.90;;;;;;4911389;29;20044;-95
2022/11/08 02:56:04;;;;;;;14.07;4.03;;;12.10;99.90;;;;;;4895567;29;20450;-96
2022/11/08 02:58:30;;;;;;;11.38;3.72;;;12.10;99.90;;;;;;4900133;29;20044;-95
2022/11/08 03:00:56;;;;;;;10.85;4.05;;;12.10;99.90;;;;;;4889146;29;20044;-96
2022/11/08 03:03:21;;;;;;;9.65;3.85;;;12.10;99.90;;;;;;4889519;29;20409;-96
2022/11/08 03:05:47;;;;;;;11.80;4.00;;;12.00;99.90;;;;;;4909538;29;20040;-96
2022/11/08 03:08:16;;;;;;;10.38;3.85;;;12.00;99.90;;;;;;4912353;29;20048;-95
2022/11/08 03:10:42;;;;;;;13.48;4.22;;;12.00;99.90;;;;;;4884004;29;20044;-94
2022/11/08 03:13:07;;;;;;;11.80;3.83;;;12.00;99.90;;;;;;4889415;29;20045;-96
2022/11/08 03:15:36;;;;;;;11.02;4.20;;;12.00;99.90;;;;;;4904092;29;20072;-95
2022/11/08 03:18:02;;;;;;;11.85;3.58;;;12.00;99.90;;;;;;4891919;29;20044;-96
2022/11/08 03:20:28;;;;;;;12.23;4.20;;;11.90;99.90;;;;;;4890902;29;20045;-96
2022/11/08 03:23:02;;;;;;;11.93;4.13;;;11.90;99.90;;;;;;4880055;29;20055;-95
2022/11/08 03:25:28;;;;;;;13.27;4.03;;;11.90;99.90;;;;;;4879450;29;20051;-96
2022/11/08 03:27:54;;;;;;;10.77;4.35;;;11.90;99.90;;;;;;4874023;29;20072;-96
2022/11/08 03:30:20;;;;;;;12.23;4.03;;;11.90;99.90;;;;;;4878280;29;20039;-96
2022/11/08 03:32:46;;;;;;;10.70;3.72;;;11.90;99.90;;;;;;4883579;29;20044;-95
2022/11/08 03:35:13;;;;;;;11.43;4.57;;;11.90;99.90;;;;;;4864491;29;20037;-95
2022/11/08 03:37:38;;;;;;;12.63;4.68;;;11.80;99.90;;;;;;4861545;29;20067;-96
2022/11/08 03:40:05;;;;;;;10.90;4.35;;;11.80;99.90;;;;;;4869873;29;20037;-96
2022/11/08 03:42:30;;;;;;;10.50;4.30;;;11.80;99.90;;;;;;4866903;29;20558;-96
2022/11/08 03:44:56;;;;;;;11.02;4.13;;;11.80;99.90;;;;;;4858187;29;20048;-95
2022/11/08 03:47:21;;;;;;;12.05;4.45;;;11.80;99.90;;;;;;4854764;29;20044;-96
2022/11/08 03:49:47;;;;;;;12.93;4.50;;;11.80;99.90;;;;;;4869447;29;20045;-96
2022/11/08 03:52:13;;;;;;;10.77;4.40;;;11.80;99.90;;;;;;4869949;29;20063;-96
2022/11/08 03:54:38;;;;;;;12.93;4.15;;;11.70;99.90;;;;;;4874907;29;20059;-96
2022/11/08 03:57:04;;;;;;;10.95;4.43;;;11.70;99.90;;;;;;4868245;29;20045;-95
2022/11/08 03:59:30;;;;;;;12.10;4.20;;;11.70;99.90;;;;;;4854641;29;20052;-96
2022/11/08 04:01:55;;;;;;;11.73;4.38;;;11.70;99.90;;;;;;4887377;29;20103;-95
2022/11/08 04:04:21;;;;;;;10.82;4.10;;;11.70;99.90;;;;;;4866672;29;20079;-96
2022/11/08 04:06:46;;;;;;;9.27;3.85;;;11.60;99.90;;;;;;4857919;29;20346;-95
2022/11/08 04:09:12;;;;;;;10.05;3.97;;;11.60;99.90;;;;;;4849373;29;20040;-96
2022/11/08 04:17:06;;;;;;;11.73;3.90;;;11.70;99.90;;;;;;4873240;29;20044;-94
2022/11/08 04:22:16;;;;;;;11.38;4.40;;;11.70;99.90;;;;;;4868883;29;20069;-95
2022/11/08 04:24:41;;;;;;;10.05;3.78;;;11.60;99.90;;;;;;4880063;29;20056;-95
2022/11/08 04:27:07;;;;;;;11.38;4.13;;;11.70;99.90;;;;;;4878865;29;20063;-96
2022/11/08 04:29:33;;;;;;;11.75;3.95;;;11.70;99.90;;;;;;4888392;29;20028;-96
2022/11/08 04:31:58;;;;;;;9.88;3.88;;;11.70;99.90;;;;;;4892377;29;20038;-96
2022/11/08 04:34:24;;;;;;;12.63;3.80;;;11.70;99.90;;;;;;4876890;29;20489;-96
2022/11/08 04:36:49;;;;;;;12.13;4.03;;;11.70;99.90;;;;;;4891829;29;20048;-95
2022/11/08 04:39:15;;;;;;;10.60;4.15;;;11.70;99.90;;;;;;4882191;29;20183;-95
2022/11/08 04:41:41;;;;;;;10.90;3.78;;;11.70;99.90;;;;;;4890707;29;20164;-96
2022/11/08 07:56:12;;;;;;;11.43;3.17;;;11.90;99.90;;;;;;5008194;23;20051;-96
2022/11/08 07:58:37;;;;;;;6.97;2.88;;;12.00;99.90;;;;;;5548814;23;20024;-95
2022/11/08 08:01:04;;;;;;;9.05;3.10;;;12.00;99.90;;;;;;4888065;29;20055;-96
2022/11/08 08:03:30;;;;;;;9.77;3.42;;;12.00;99.90;;;;;;4915009;29;20063;-96
2022/11/08 08:06:01;;;;;;;8.57;3.00;;;12.00;99.90;;;;;;5022758;24;20149;-94
2022/11/08 08:08:28;;;;;;;8.55;2.88;;;12.10;99.90;;;;;;5396552;23;20049;-96
2022/11/08 08:11:04;;;;;;;7.90;3.10;;;12.20;99.90;;;;;;5603546;23;20031;31
2022/11/08 08:25:20;;;;;;;7.57;3.00;;;12.40;99.90;;;;;;1271668;23;20242;-93
2022/11/08 08:27:51;;;;;;;7.78;2.90;;;12.50;99.90;;;;;;5057402;24;20454;-96
2022/11/08 08:30:18;;;;;;;9.35;3.15;;;12.50;99.90;;;;;;5011297;23;20055;-96
2022/11/08 08:32:46;;;;;;;7.47;2.85;;;12.50;99.90;;;;;;5124126;23;20059;-92
2022/11/08 08:35:12;;;;;;;7.57;3.20;;;12.50;99.90;;;;;;5208004;23;20147;-93
2022/11/08 08:40:33;;;;;;;8.93;3.00;;;12.60;99.90;;;;;;4989359;23;20083;-94
2022/11/08 08:42:59;;;;;;;6.50;2.50;;;12.60;99.90;;;;;;5074967;23;20048;-95
2022/11/08 08:45:26;;;;;;;7.63;2.60;;;12.60;99.90;;;;;;4912105;29;20052;-95
2022/11/08 08:47:56;;;;;;;7.28;2.78;;;12.70;99.90;;;;;;4893664;29;20044;-95
2022/11/08 08:50:23;;;;;;;7.20;2.78;;;12.70;99.90;;;;;;4924470;29;20028;-94
2022/11/08 08:52:48;;;;;;;5.60;2.50;;;12.70;99.90;;;;;;5304331;23;20020;-93
2022/11/08 08:55:17;;;;;;;7.13;2.78;;;12.70;99.90;;;;;;5149585;23;20063;-96
2022/11/08 08:57:45;;;;;;;6.55;2.63;;;12.80;99.90;;;;;;4892022;29;20044;-94
2022/11/08 09:00:12;;;;;;;6.45;2.53;;;12.90;99.90;;;;;;5013409;23;20127;-96
2022/11/08 09:02:40;;;;;;;6.88;2.50;;;12.90;99.90;;;;;;4936411;23;20061;-95
2022/11/08 09:05:06;;;;;;;6.28;2.60;;;13.00;99.90;;;;;;4861579;29;20068;-93
2022/11/08 09:07:32;;;;;;;6.28;2.47;;;13.00;99.90;;;;;;4894330;29;20074;-92
2022/11/08 09:12:34;;;;;;;8.02;2.72;;;13.10;99.90;;;;;;5240116;23;20309;-94
2022/11/08 09:17:48;;;;;;;6.70;2.88;;;13.30;99.90;;;;;;5151054;23;20085;-93
2022/11/08 09:20:14;;;;;;;7.47;2.83;;;13.30;99.90;;;;;;4885344;29;20036;-94
2022/11/08 09:22:40;;;;;;;6.95;2.90;;;13.40;99.90;;;;;;4877054;29;20057;-93
2022/11/08 09:25:06;;;;;;;7.28;2.70;;;13.40;99.90;;;;;;4909201;29;20079;-95
2022/11/08 09:27:31;;;;;;;7.00;2.90;;;13.50;99.90;;;;;;4898500;23;20106;-93
2022/11/08 09:29:58;;;;;;;6.22;2.50;;;13.50;99.90;;;;;;4853390;29;20518;-92
2022/11/08 09:32:26;;;;;;;7.13;2.80;;;13.60;99.90;;;;;;5209231;23;20026;-90
2022/11/08 09:34:57;;;;;;;7.35;2.70;;;13.60;99.90;;;;;;4983890;23;20053;-96
2022/11/08 09:37:24;;;;;;;6.82;2.53;;;13.70;99.90;;;;;;4857581;29;20085;-94
2022/11/08 09:39:50;;;;;;;7.55;2.80;;;13.80;99.90;;;;;;4916192;23;20069;-95
2022/11/08 09:42:27;;;;;;;7.43;2.78;;;13.80;99.90;;;;;;4870137;29;20026;-95
2022/11/08 11:34:23;;;;;;;7.13;2.42;;;14.50;99.90;;;;;;1892221;23;20351;-94
2022/11/08 11:36:51;;;;;;;8.65;2.55;;;14.60;99.90;;;;;;4872192;29;20057;-94
2022/11/08 11:39:41;;;;;;;5.80;2.70;;;14.60;99.90;;;;;;4890301;29;20048;-96
2022/11/08 11:45:07;;;;;;;5.90;2.25;;;14.70;99.90;;;;;;5023443;23;20068;-95
2022/11/08 11:47:52;;;;;;;8.05;2.95;;;14.70;99.90;;;;;;5337579;23;20048;-91
2022/11/08 11:50:34;;;;;;;6.03;2.70;;;14.80;99.90;;;;;;5064746;23;20287;-96
2022/11/08 11:55:44;;;;;;;6.63;2.55;;;14.80;99.90;;;;;;5196050;23;20039;-96
2022/11/08 11:58:38;;;;;;;6.57;2.67;;;14.90;99.90;;;;;;4973345;23;20053;-92
2022/11/08 12:01:16;;;;;;;6.95;2.42;;;14.90;99.90;;;;;;4908339;29;20064;-95
2022/11/08 12:04:17;;;;;;;6.50;2.80;;;15.00;99.90;;;;;;4877814;29;20502;-93
2022/11/08 12:06:45;;;;;;;7.13;2.50;;;15.00;99.90;;;;;;4903389;29;20040;-96
2022/11/08 12:09:40;;;;;;;7.13;2.45;;;15.00;99.90;;;;;;5075944;23;20060;-95
2022/11/08 12:12:14;;;;;;;5.60;2.13;;;15.00;99.90;;;;;;4850001;29;20063;-96
2022/11/08 12:14:58;;;;;;;7.57;2.90;;;15.00;99.90;;;;;;4872662;29;20118;-92
2022/11/08 12:20:19;;;;;;;7.40;2.83;;;14.90;99.90;;;;;;4942313;23;20421;-93
2022/11/08 12:23:10;;;;;;;6.22;2.80;;;14.80;99.90;;;;;;4936770;23;20061;-96
2022/11/08 12:25:36;;;;;;;;;;;14.80;99.90;;;;;;4857369;29;20328;-95
2022/11/08 12:28:18;;;;;;;7.43;2.75;;;14.80;99.90;;;;;;4869979;29;19926;-95
2022/11/08 12:31:16;;;;;;;7.28;2.92;;;14.80;99.90;;;;;;4963092;23;20057;-94
2022/11/08 12:33:45;;;;;;;9.93;3.78;;;14.80;99.90;;;;;;5119121;23;20052;-95
2022/11/08 12:36:17;;;;;;;6.07;2.70;;;14.80;99.90;;;;;;4957629;23;20055;-95
2022/11/08 12:42:23;;;;;;;5.63;1.95;;;14.80;99.90;;;;;;1977994;23;20232;-94
2022/11/08 12:45:17;;;;;;;5.05;2.20;;;14.80;99.90;;;;;;4861083;29;20061;-96
2022/11/08 12:47:49;;;;;;;6.85;2.67;;;14.70;99.90;;;;;;4958736;23;20068;-94
2022/11/08 12:53:36;;;;;;;6.78;2.40;;;14.70;99.90;;;;;;5007115;23;20049;-95
2022/11/08 12:58:46;;;;;;;6.30;2.42;;;14.70;99.90;;;;;;5387955;23;20471;-96
2022/11/08 13:01:17;;;;;;;7.13;2.63;;;14.70;99.90;;;;;;5075977;23;20060;-89
2022/11/08 13:03:44;;;;;;;12.68;3.15;;;14.70;99.90;;;;;;4907673;29;20457;-87
2022/11/08 13:06:47;;;;;;;6.22;2.40;;;14.70;99.90;;;;;;4899130;29;20058;-92
2022/11/08 13:09:29;;;;;;;8.68;2.58;;;14.70;99.90;;;;;;4916752;29;20040;-91
2022/11/08 13:12:05;;;;;;;7.22;2.90;;;14.70;99.90;;;;;;4892322;29;20071;-86
2022/11/08 13:14:32;;;;;;;8.10;3.00;;;14.70;99.90;;;;;;4896836;29;20426;-87
2022/11/08 13:17:21;;;;;;;8.52;3.20;;;14.70;99.90;;;;;;4888374;29;20053;-84
2022/11/08 13:19:47;;;;;;;7.60;2.42;;;14.80;99.90;;;;;;4916547;29;20087;-85
2022/11/08 13:22:28;;;;;;;7.70;2.80;;;14.80;99.90;;;;;;4906485;29;20064;-94
2022/11/08 13:25:12;;;;;;;6.35;2.58;;;14.80;99.90;;;;;;4881639;29;20049;-90
2022/11/08 13:27:42;;;;;;;8.80;4.80;;;14.80;99.90;;;;;;4910316;29;20052;-92
2022/11/08 13:30:10;;;;;;;8.82;3.50;;;14.80;99.90;;;;;;4898048;29;20054;-90
2022/11/08 13:32:42;;;;;;;8.32;3.13;;;14.80;99.90;;;;;;4900681;29;20040;-90
2022/11/08 13:35:14;;;;;;;6.22;2.30;;;14.80;99.90;;;;;;4914204;29;20044;-91
2022/11/08 13:37:53;;;;;;;7.15;2.90;;;14.80;99.90;;;;;;4888992;29;20036;-91
2022/11/08 13:40:25;;;;;;;7.10;2.97;;;14.80;99.90;;;;;;4923739;29;20040;-91
2022/11/08 13:43:18;;;;;;;7.47;2.83;;;14.80;99.90;;;;;;4884441;29;20056;-92
2022/11/08 13:45:44;;;;;;;6.72;2.80;;;14.70;99.90;;;;;;4884813;29;20053;-93
2022/11/08 13:48:32;;;;;;;6.30;2.53;;;14.70;99.90;;;;;;4907149;29;20082;-84
2022/11/08 13:51:28;;;;;;;6.50;2.45;;;14.80;99.90;;;;;;4902766;29;20063;-87
2022/11/08 13:53:59;;;;;;;6.38;2.50;;;14.80;99.90;;;;;;4919632;29;20036;-88
2022/11/08 13:56:53;;;;;;;8.70;2.33;;;14.80;99.90;;;;;;4920152;29;20044;-89
2022/11/08 13:59:42;;;;;;;8.20;2.70;;;14.80;99.90;;;;;;4909278;29;20039;-86
2022/11/08 14:02:22;;;;;;;6.63;2.40;;;14.80;99.90;;;;;;4892964;29;20052;-87
2022/11/08 14:04:48;;;;;;;6.50;2.30;;;14.80;99.90;;;;;;4898949;29;20080;-86
2022/11/08 14:07:38;;;;;;;5.55;2.30;;;14.80;99.90;;;;;;4891777;29;20469;-86
2022/11/08 14:10:31;;;;;;;8.35;2.40;;;14.80;99.90;;;;;;4902350;29;20040;-86
2022/11/08 14:13:14;;;;;;;6.57;2.47;;;14.80;99.90;;;;;;4898360;29;20060;-86
2022/11/08 14:15:45;;;;;;;7.05;2.50;;;14.80;99.90;;;;;;4909110;29;20044;-91
2022/11/08 14:18:28;;;;;;;5.88;2.20;;;14.80;99.90;;;;;;4867534;29;20044;-89
2022/11/08 14:20:54;;;;;;;5.45;2.10;;;14.80;99.90;;;;;;4917980;29;20039;-88
2022/11/08 14:23:39;;;;;;;7.05;2.40;;;14.80;99.90;;;;;;4899774;29;20050;-89
2022/11/08 14:26:21;;;;;;;7.15;2.50;;;14.80;99.90;;;;;;4911666;29;20040;-87
2022/11/08 14:28:49;;;;;;;6.30;2.40;;;14.80;99.90;;;;;;4899353;29;20122;-88
2022/11/08 14:31:27;;;;;;;8.25;3.10;;;14.80;99.90;;;;;;4891941;29;20071;-89
2022/11/08 14:33:53;;;;;;;6.70;2.45;;;14.80;99.90;;;;;;4899282;29;20382;-90
2022/11/08 14:36:20;;;;;;;6.78;2.63;;;14.80;99.90;;;;;;4900447;29;20041;-87
2022/11/08 14:38:49;;;;;;;7.82;3.25;;;14.90;99.90;;;;;;4933158;29;20048;-90
2022/11/08 14:41:24;;;;;;;7.82;2.50;;;14.80;99.90;;;;;;4896916;29;20496;-93
2022/11/08 14:43:52;;;;;;;6.50;2.20;;;14.80;99.90;;;;;;4895071;29;20058;-94
2022/11/08 14:46:31;;;;;;;6.63;2.50;;;14.80;99.90;;;;;;4913792;29;20059;-93
2022/11/08 14:48:58;;;;;;;7.53;2.40;;;14.80;99.90;;;;;;4883904;29;20048;-94
2022/11/08 14:51:25;;;;;;;7.28;2.90;;;14.70;99.90;;;;;;4902255;29;20043;-93
2022/11/08 14:53:53;;;;;;;6.85;2.60;;;14.70;99.90;;;;;;4887250;29;20568;-94
2022/11/08 14:56:22;;;;;;;7.22;2.50;;;14.70;99.90;;;;;;4899576;29;20091;-95
2022/11/08 14:58:49;;;;;;;6.22;2.58;;;14.70;99.90;;;;;;4906658;29;20115;-92
2022/11/08 15:01:22;;;;;;;7.55;2.58;;;14.60;99.90;;;;;;4887124;29;20052;-93
2022/11/08 15:04:00;;;;;;;7.80;2.67;;;14.60;99.90;;;;;;4923808;29;20047;-94
2022/11/08 15:06:32;;;;;;;7.75;2.80;;;14.60;99.90;;;;;;4917106;29;20382;-89
2022/11/08 15:09:00;;;;;;;5.93;2.20;;;14.50;99.90;;;;;;4914320;29;20100;-95
2022/11/08 15:11:34;;;;;;;7.93;2.58;;;14.60;99.90;;;;;;4880534;29;20083;-92
2022/11/08 15:14:09;;;;;;;6.70;2.42;;;14.50;99.90;;;;;;4916859;29;20124;-93
2022/11/08 15:16:40;;;;;;;6.30;2.38;;;14.50;99.90;;;;;;4897507;29;20048;-93
2022/11/08 15:19:33;;;;;;;7.00;2.40;;;14.50;99.90;;;;;;4915675;29;20548;-93
2022/11/08 15:22:01;;;;;;;9.27;2.70;;;14.40;99.90;;;;;;4915792;29;20421;-94
2022/11/08 15:24:39;;;;;;;6.60;2.35;;;14.40;99.90;;;;;;4904125;29;20041;-92
2022/11/08 15:27:08;;;;;;;7.50;2.55;;;14.40;99.90;;;;;;4878614;29;20084;-93
2022/11/08 15:29:58;;;;;;;7.10;2.22;;;14.40;99.90;;;;;;4899210;29;20048;-93
2022/11/08 15:32:23;;;;;;;5.20;2.28;;;14.40;99.90;;;;;;4912657;29;20400;-96
2022/11/08 15:34:54;;;;;;;6.68;2.38;;;14.40;99.90;;;;;;4906147;29;20049;-92
2022/11/08 15:37:36;;;;;;;7.65;2.58;;;14.40;99.90;;;;;;4919441;29;20048;-96
2022/11/08 15:40:15;;;;;;;7.35;2.15;;;14.40;99.90;;;;;;4890164;29;20071;-88
2022/11/08 15:42:46;;;;;;;6.40;2.47;;;14.40;99.90;;;;;;4894398;29;20044;-90
2022/11/08 15:45:12;;;;;;;8.20;2.55;;;14.40;99.90;;;;;;4909368;29;20035;-87
2022/11/08 15:47:40;;;;;;;5.95;2.50;;;14.40;99.90;;;;;;4913842;29;20044;-89
2022/11/08 15:50:24;;;;;;;5.55;2.35;;;14.30;99.90;;;;;;4913841;29;20119;-88
2022/11/08 15:52:55;;;;;;;7.80;2.55;;;14.30;99.90;;;;;;4903306;29;20047;-88
2022/11/08 15:55:29;;;;;;;7.43;2.30;;;14.30;99.90;;;;;;4911125;29;20043;-89
2022/11/08 15:57:57;;;;;;;7.70;3.15;;;14.30;99.90;;;;;;4897271;29;20556;-86
2022/11/08 16:00:30;;;;;;;7.53;2.40;;;14.30;99.90;;;;;;4914508;29;20364;-87
2022/11/08 16:02:56;;;;;;;5.40;2.08;;;14.30;99.90;;;;;;4913214;29;20048;-85
2022/11/08 16:05:28;;;;;;;8.05;2.47;;;14.30;99.90;;;;;;4891473;29;20493;-86
2022/11/08 16:07:54;;;;;;;8.00;2.50;;;14.30;99.90;;;;;;4887455;29;20040;-86
2022/11/08 16:10:30;;;;;;;6.90;2.03;;;14.30;99.90;;;;;;4900512;29;20028;-86
2022/11/08 16:13:00;;;;;;;7.43;2.42;;;14.30;99.90;;;;;;4881780;29;20397;-86
2022/11/08 16:15:29;;;;;;;5.15;2.15;;;14.30;99.90;;;;;;4896803;29;20047;-86
2022/11/08 16:17:54;;;;;;;7.10;2.58;;;14.30;99.90;;;;;;4901268;29;20040;-85
2022/11/08 16:20:29;;;;;;;5.82;2.28;;;14.30;99.90;;;;;;4896373;29;20150;-86
2022/11/08 16:22:56;;;;;;;6.35;2.30;;;14.30;99.90;;;;;;4893267;29;20040;-85
2022/11/08 16:25:22;;;;;;;7.28;2.42;;;14.30;99.90;;;;;;4904089;29;20055;-85
2022/11/08 16:27:52;;;;;;;7.68;2.30;;;14.30;99.90;;;;;;4892848;29;20052;-86
2022/11/08 16:30:18;;;;;;;6.47;2.03;;;14.30;99.90;;;;;;4915503;29;20052;-86
2022/11/08 16:32:43;;;;;;;6.43;2.10;;;14.30;99.90;;;;;;4911677;29;20083;-88
2022/11/08 16:35:09;;;;;;;6.65;2.38;;;14.30;99.90;;;;;;4891983;29;20079;-86
2022/11/08 16:37:36;;;;;;;7.10;2.20;;;14.30;99.90;;;;;;4914660;29;20079;-87
2022/11/08 16:40:03;;;;;;;7.65;2.30;;;14.30;99.90;;;;;;4889183;29;20064;-85
2022/11/08 16:42:28;;;;;;;6.80;2.42;;;14.40;99.90;;;;;;4896615;29;20044;-86
2022/11/08 16:44:54;;;;;;;6.93;2.28;;;14.30;99.90;;;;;;4916872;29;20048;-86
2022/11/08 16:47:19;;;;;;;7.78;2.22;;;14.30;99.90;;;;;;4896007;29;20637;-85
2022/11/08 16:49:48;;;;;;;7.40;2.33;;;14.40;99.90;;;;;;4910280;29;20165;-86
2022/11/08 16:52:13;;;;;;;7.63;2.38;;;14.40;99.90;;;;;;4891532;29;20115;-85
2022/11/08 16:54:39;;;;;;;6.00;2.28;;;14.40;99.90;;;;;;4890223;29;20124;-87
2022/11/08 16:57:05;;;;;;;8.30;2.60;;;14.40;99.90;;;;;;4910646;29;20043;-88
2022/11/08 16:59:31;;;;;;;8.75;2.60;;;14.30;99.90;;;;;;4914281;29;20047;-86
2022/11/08 17:01:57;;;;;;;6.97;2.50;;;14.30;99.90;;;;;;4893755;29;20420;-86
2022/11/08 17:04:22;;;;;;;5.70;2.40;;;14.30;99.90;;;;;;4913685;29;20432;-86
2022/11/08 17:06:48;;;;;;;8.02;2.53;;;14.30;99.90;;;;;;4914848;29;20044;-85
2022/11/08 17:09:14;;;;;;;8.20;2.72;;;14.30;99.90;;;;;;4919106;29;20377;-87
2022/11/08 17:11:39;;;;;;;8.38;2.60;;;14.30;99.90;;;;;;4880188;29;20078;-85
2022/11/08 17:14:06;;;;;;;5.85;2.10;;;14.30;99.90;;;;;;4909776;29;20052;-90
2022/11/08 17:16:31;;;;;;;7.90;2.20;;;14.20;99.90;;;;;;4893083;29;20036;-87
2022/11/08 17:18:57;;;;;;;8.55;2.38;;;14.20;99.90;;;;;;4904645;29;20036;-90
2022/11/08 17:21:23;;;;;;;8.20;2.33;;;14.20;99.90;;;;;;4893022;29;20067;-87
2022/11/08 17:23:49;;;;;;;7.65;2.35;;;14.20;99.90;;;;;;4909922;29;20047;-86
2022/11/08 17:26:15;;;;;;;7.82;2.35;;;14.20;99.90;;;;;;4891612;29;20044;-90
2022/11/08 17:28:41;;;;;;;7.30;2.70;;;14.20;99.90;;;;;;4912770;29;20393;-91
2022/11/08 17:31:11;;;;;;;6.28;2.35;;;14.10;99.90;;;;;;4917706;29;20078;-91
2022/11/08 17:33:37;;;;;;;8.25;2.40;;;14.10;99.90;;;;;;4908658;29;20044;-93
2022/11/08 17:36:07;;;;;;;7.68;2.58;;;14.10;99.90;;;;;;4875785;29;20048;-90
2022/11/08 17:38:34;;;;;;;7.87;2.87;;;14.10;99.90;;;;;;4878491;29;20052;-91
2022/11/08 17:41:09;;;;;;;6.32;2.08;;;14.00;99.90;;;;;;4878675;29;20281;-90
2022/11/08 17:43:35;;;;;;;6.35;2.42;;;14.00;99.90;;;;;;4879099;29;20045;-92
2022/11/08 17:46:02;;;;;;;7.00;2.28;;;14.00;99.90;;;;;;4905506;29;20044;-91
2022/11/08 17:48:28;;;;;;;6.55;2.38;;;14.10;99.90;;;;;;4903232;29;20050;-93
2022/11/08 17:50:55;;;;;;;7.38;2.58;;;14.10;99.90;;;;;;4920805;29;20071;-90
2022/11/08 17:53:21;;;;;;;7.38;2.65;;;14.00;99.90;;;;;;4914782;29;20051;-91
2022/11/08 17:55:55;;;;;;;7.90;2.53;;;14.00;99.90;;;;;;4915207;29;20553;-90
2022/11/08 17:58:21;;;;;;;8.57;2.63;;;14.00;99.90;;;;;;4896308;29;20142;-92
2022/11/08 18:00:54;;;;;;;7.10;2.08;;;14.00;99.90;;;;;;4917421;29;20386;-90
2022/11/08 18:03:21;;;;;;;6.95;2.47;;;14.00;99.90;;;;;;4914444;29;20075;-91
2022/11/08 18:05:55;;;;;;;7.85;2.30;;;14.00;99.90;;;;;;4922406;29;20472;-90
2022/11/08 18:08:21;;;;;;;6.80;2.50;;;14.00;99.90;;;;;;4894284;29;20075;-91
2022/11/08 18:10:47;;;;;;;6.38;2.35;;;14.00;99.90;;;;;;4901379;29;20347;-86
2022/11/08 18:13:12;;;;;;;7.38;2.63;;;14.00;99.90;;;;;;4903749;29;20048;-87
2022/11/08 18:15:38;;;;;;;8.50;2.30;;;14.00;99.90;;;;;;4911645;29;20051;-87
2022/11/08 18:18:04;;;;;;;8.70;2.53;;;14.10;99.90;;;;;;4909228;29;20044;-89
2022/11/08 18:20:30;;;;;;;6.93;2.40;;;14.10;99.90;;;;;;4915848;29;20074;-87
2022/11/08 18:22:56;;;;;;;6.78;2.38;;;14.10;99.90;;;;;;4902844;29;20046;-88
2022/11/08 18:25:22;;;;;;;7.28;2.40;;;14.10;99.90;;;;;;4915220;29;20508;-88
2022/11/08 18:27:47;;;;;;;7.28;2.83;;;14.10;99.90;;;;;;4898902;29;20575;-87
2022/11/08 18:30:13;;;;;;;6.50;2.40;;;14.10;99.90;;;;;;4871488;29;20150;-88
2022/11/08 18:32:39;;;;;;;7.43;2.50;;;14.10;99.90;;;;;;4890209;29;20454;-88
2022/11/08 18:35:05;;;;;;;7.18;2.47;;;14.10;99.90;;;;;;4913903;29;20047;-88
2022/11/08 18:37:31;;;;;;;8.60;2.75;;;14.10;99.90;;;;;;4911216;29;20408;-87
2022/11/08 18:39:56;;;;;;;9.25;2.50;;;14.20;99.90;;;;;;4898327;29;20045;-91
2022/11/08 18:42:22;;;;;;;8.13;2.50;;;14.10;99.90;;;;;;4896302;29;20044;-91
2022/11/08 18:44:47;;;;;;;6.60;2.40;;;14.10;99.90;;;;;;4892971;29;20036;-89
2022/11/08 18:47:13;;;;;;;8.43;2.58;;;14.10;99.90;;;;;;4898569;29;20115;-91
2022/11/08 18:49:38;;;;;;;7.95;2.80;;;14.00;99.90;;;;;;4884404;29;20135;-90
2022/11/08 18:52:04;;;;;;;6.72;2.45;;;14.20;99.90;;;;;;4882854;29;20047;-94
2022/11/08 18:54:30;;;;;;;6.80;2.50;;;14.10;99.90;;;;;;4894699;29;20101;-93